Time;durP1;ratioP1;P1;durP2;ratioP2;P2;SDS_P1;SDS_P2;PMS_P1;PMS_P2;Temp;Humidity;BMP_temperature;BMP_pressure;BME280_temperature;BME280_humidity;BME280_pressure;Samples;Min_cycle;Max_cycle;Signal;HPM_P1;HPM_P2
2021/12/24 00:01:16;;;;;;;26.77;13.83;;;8.30;99.90;;;;;;4952906;29;20031;-36
2021/12/24 00:03:42;;;;;;;27.63;12.57;;;8.30;99.90;;;;;;4953874;28;20023;-37
2021/12/24 00:06:09;;;;;;;25.35;12.35;;;8.30;99.90;;;;;;4957512;29;20491;-38
2021/12/24 00:08:35;;;;;;;27.08;11.52;;;8.30;99.90;;;;;;4955750;29;20031;-37
2021/12/24 00:11:02;;;;;;;20.60;10.10;;;8.40;99.90;;;;;;4952348;29;20038;-56
2021/12/24 00:13:33;;;;;;;21.70;11.20;;;8.40;99.90;;;;;;4956279;29;20452;-34
2021/12/24 00:16:21;;;;;;;20.30;10.32;;;8.40;99.90;;;;;;4956264;29;20535;-34
2021/12/24 00:18:54;;;;;;;22.88;11.05;;;8.40;99.90;;;;;;4957384;29;20070;-45
2021/12/24 00:37:25;;;;;;;21.83;11.63;;;8.50;99.90;;;;;;4949624;29;20392;-36
2021/12/24 00:42:35;;;;;;;26.55;12.68;;;8.60;99.90;;;;;;4957214;29;20034;-37
2021/12/24 00:45:00;;;;;;;24.70;11.55;;;8.60;99.90;;;;;;4955992;29;20468;-36
2021/12/24 00:47:26;;;;;;;24.30;11.02;;;8.70;99.90;;;;;;4955993;29;20534;-36
2021/12/24 00:49:53;;;;;;;19.40;9.95;;;8.70;99.90;;;;;;4956185;29;20027;-32
2021/12/24 00:55:05;;;;;;;20.10;10.43;;;8.80;99.90;;;;;;4956710;29;20035;-33
2021/12/24 00:57:36;;;;;;;17.40;9.00;;;8.80;99.90;;;;;;4956904;29;20454;-39
2021/12/24 01:00:06;;;;;;;21.50;10.63;;;8.80;99.90;;;;;;4947223;29;20031;-41
2021/12/24 01:02:32;;;;;;;21.45;11.75;;;8.90;99.90;;;;;;4950971;29;20038;-38
2021/12/24 01:04:58;;;;;;;20.40;11.05;;;8.90;99.90;;;;;;4954851;29;20031;-39
2021/12/24 01:07:23;;;;;;;21.52;10.65;;;9.00;99.90;;;;;;4955039;29;20391;-38
2021/12/24 01:09:49;;;;;;;20.83;9.95;;;9.00;99.90;;;;;;4955704;29;20031;-35
2021/12/24 01:12:15;;;;;;;18.98;10.45;;;9.00;99.90;;;;;;4955986;29;20531;-35
2021/12/24 01:14:41;;;;;;;18.17;9.95;;;9.00;99.90;;;;;;4955661;29;20468;-36
2021/12/24 01:17:34;;;;;;;23.23;11.20;;;9.00;99.90;;;;;;4955144;28;20027;-35
2021/12/24 01:19:58;;;;;;;21.38;11.30;;;9.00;99.90;;;;;;4952205;29;20535;-31
2021/12/24 01:25:25;;;;;;;19.60;9.93;;;9.10;99.90;;;;;;4950151;28;20042;-37
2021/12/24 01:38:32;;;;;;;21.27;11.48;;;9.30;99.90;;;;;;4955143;29;20046;-37
2021/12/24 01:43:26;;;;;;;26.88;10.77;;;9.40;99.90;;;;;;4955458;29;20131;-36
2021/12/24 01:45:54;;;;;;;27.80;11.68;;;9.40;99.90;;;;;;4955553;29;20058;-33
2021/12/24 01:48:20;;;;;;;;;;;9.50;99.90;;;;;;4956061;29;20023;-35
2021/12/24 01:50:47;;;;;;;27.48;10.90;;;9.50;99.90;;;;;;4936894;29;19997;-37
2021/12/24 01:53:18;;;;;;;32.45;11.07;;;9.60;99.90;;;;;;4952432;29;20565;-39
2021/12/24 01:55:47;;;;;;;25.60;10.80;;;9.60;99.90;;;;;;4956028;29;20023;-33
2021/12/24 01:58:13;;;;;;;29.85;11.35;;;9.70;99.90;;;;;;4913660;29;20023;-34
2021/12/24 02:00:42;;;;;;;38.38;12.00;;;9.80;99.90;;;;;;4952378;29;20012;-36
2021/12/24 02:03:10;;;;;;;27.55;10.90;;;9.80;99.90;;;;;;4953682;29;20062;-36
2021/12/24 02:05:37;;;;;;;35.53;12.88;;;9.90;99.90;;;;;;4955286;29;20027;-35
2021/12/24 02:08:03;;;;;;;36.88;12.73;;;9.90;99.90;;;;;;4955294;29;20027;-34
2021/12/24 02:10:29;;;;;;;23.17;11.90;;;9.90;99.90;;;;;;4954505;29;20369;-36
2021/12/24 02:12:55;;;;;;;29.05;10.57;;;9.90;99.90;;;;;;4955196;29;20042;-33
2021/12/24 02:28:39;;;;;;;33.60;10.65;;;10.10;99.90;;;;;;4951016;29;20042;-34
2021/12/24 02:31:16;;;;;;;33.45;11.20;;;10.20;99.90;;;;;;4954390;29;20473;-33
2021/12/24 02:33:42;;;;;;;24.33;8.85;;;10.20;99.90;;;;;;4954665;29;20023;-34
2021/12/24 02:36:08;;;;;;;20.25;8.75;;;10.20;99.90;;;;;;4954754;29;20575;-37
2021/12/24 02:38:35;;;;;;;28.52;8.30;;;10.20;99.90;;;;;;4954745;29;20503;-35
2021/12/24 02:41:02;;;;;;;20.58;8.73;;;10.20;99.90;;;;;;4954614;29;20502;-37
2021/12/24 02:43:28;;;;;;;27.30;8.73;;;10.30;99.90;;;;;;4954116;29;20103;-31
2021/12/24 02:45:58;;;;;;;18.23;7.93;;;10.30;99.90;;;;;;4953125;29;20547;-33
2021/12/24 02:56:25;;;;;;;22.58;7.38;;;10.40;99.90;;;;;;4947262;29;20440;-32
2021/12/24 02:58:51;;;;;;;21.10;6.97;;;10.30;99.90;;;;;;4952857;29;20575;-36
2021/12/24 03:01:22;;;;;;;14.98;6.93;;;10.40;99.90;;;;;;4952281;29;20139;-34
2021/12/24 03:03:48;;;;;;;17.00;7.35;;;10.30;99.90;;;;;;4954326;29;20032;-37
2021/12/24 03:06:24;;;;;;;21.95;7.15;;;10.30;99.90;;;;;;4954475;29;20062;-37
2021/12/24 03:08:50;;;;;;;19.92;6.35;;;10.40;99.90;;;;;;4952841;29;20035;-34
2021/12/24 03:11:16;;;;;;;18.63;7.47;;;10.30;99.90;;;;;;4954361;29;20042;-44
2021/12/24 03:13:42;;;;;;;23.42;6.40;;;10.30;99.90;;;;;;4954267;29;20031;-34
2021/12/24 03:16:08;;;;;;;17.00;6.40;;;10.30;99.90;;;;;;4954240;29;20473;-36
2021/12/24 03:18:37;;;;;;;19.48;6.95;;;10.30;99.90;;;;;;4954442;29;20495;-39
2021/12/24 03:21:09;;;;;;;23.05;6.30;;;10.30;99.90;;;;;;4954358;29;20472;-32
2021/12/24 03:23:39;;;;;;;18.98;6.97;;;10.30;99.90;;;;;;4953986;29;20051;-38
2021/12/24 03:26:06;;;;;;;19.88;6.97;;;10.30;99.90;;;;;;4953874;29;20473;-37
2021/12/24 03:28:32;;;;;;;31.45;8.02;;;10.30;99.90;;;;;;4954118;29;20020;-36
2021/12/24 03:30:59;;;;;;;20.17;7.53;;;10.30;99.90;;;;;;4954049;29;20400;-38
2021/12/24 03:33:25;;;;;;;13.77;6.90;;;10.30;99.90;;;;;;4953852;29;20027;-34
2021/12/24 03:35:51;;;;;;;17.05;6.85;;;10.30;99.90;;;;;;4954229;29;20546;-31
2021/12/24 03:38:17;;;;;;;20.15;6.80;;;10.30;99.90;;;;;;4953730;28;20019;-38
2021/12/24 03:40:43;;;;;;;22.40;6.25;;;10.30;99.90;;;;;;4958237;29;20027;-30
2021/12/24 03:43:09;;;;;;;14.07;6.45;;;10.30;99.90;;;;;;4957259;29;20039;-33
2021/12/24 03:45:43;;;;;;;15.77;6.72;;;10.30;99.90;;;;;;4957523;29;20039;-32
2021/12/24 03:48:18;;;;;;;20.95;6.68;;;10.20;99.90;;;;;;4957356;29;20058;-32
2021/12/24 03:51:40;;;;;;;15.05;6.28;;;10.30;99.90;;;;;;4958477;29;20045;-36
2021/12/24 03:56:15;;;;;;;17.58;6.97;;;10.30;99.90;;;;;;4957129;29;20110;-33
2021/12/24 03:58:41;;;;;;;13.88;5.90;;;10.30;99.90;;;;;;4957850;29;20146;-34
2021/12/24 04:01:07;;;;;;;19.75;6.15;;;10.20;99.90;;;;;;4957910;29;20528;-38
2021/12/24 04:03:33;;;;;;;17.83;5.60;;;10.20;99.90;;;;;;4957279;29;20035;-36
2021/12/24 04:05:59;;;;;;;20.95;5.45;;;10.20;99.90;;;;;;4955389;29;20035;-39
2021/12/24 04:08:25;;;;;;;13.63;4.90;;;10.20;99.90;;;;;;4952104;29;20019;-36
2021/12/24 04:10:50;;;;;;;14.85;5.38;;;10.20;99.90;;;;;;4938411;29;20055;-37
2021/12/24 04:13:16;;;;;;;22.13;5.70;;;10.20;99.90;;;;;;4949422;29;20118;-38
2021/12/24 04:15:43;;;;;;;12.30;5.68;;;10.20;99.90;;;;;;4957290;29;20127;-48
2021/12/24 04:18:17;;;;;;;10.75;5.35;;;10.20;99.90;;;;;;4957266;29;20106;-36
2021/12/24 04:26:13;;;;;;;13.05;5.28;;;10.20;99.90;;;;;;4955373;29;20146;-34
2021/12/24 04:28:39;;;;;;;30.50;7.03;;;10.20;99.90;;;;;;4956825;29;20384;-37
2021/12/24 04:31:05;;;;;;;28.00;6.03;;;10.20;99.90;;;;;;4957380;29;20498;-36
2021/12/24 04:33:37;;;;;;;15.27;5.35;;;10.20;99.90;;;;;;4956440;29;20031;-37
2021/12/24 04:36:23;;;;;;;12.23;5.15;;;10.20;99.90;;;;;;4953168;29;20037;-42
2021/12/24 04:53:07;;;;;;;15.07;4.68;;;10.30;99.90;;;;;;4955966;29;20052;-35
2021/12/24 05:01:22;;;;;;;19.65;4.80;;;10.20;99.90;;;;;;4957132;29;20082;-38
2021/12/24 05:03:48;;;;;;;11.20;3.83;;;10.20;99.90;;;;;;4956507;29;20086;-36
2021/12/24 05:08:54;;;;;;;15.25;3.50;;;10.10;99.90;;;;;;4956764;29;20035;-37
2021/12/24 05:11:21;;;;;;;11.77;3.63;;;10.10;99.90;;;;;;4956547;29;20031;-36
2021/12/24 05:13:48;;;;;;;20.30;4.17;;;10.20;99.90;;;;;;4956400;29;20421;-33
2021/12/24 05:21:42;;;;;;;15.82;3.88;;;10.20;99.90;;;;;;4956535;29;20102;-36
2021/12/24 05:24:30;;;;;;;19.63;4.20;;;10.10;99.90;;;;;;4956479;29;20471;-35
2021/12/24 05:26:57;;;;;;;;;;;10.10;99.90;;;;;;4957181;29;20487;-41
2021/12/24 05:29:23;;;;;;;8.10;3.72;;;10.00;99.90;;;;;;4956531;29;20013;-39
2021/12/24 05:31:50;;;;;;;9.30;4.05;;;10.10;99.90;;;;;;4956036;29;20555;-40
2021/12/24 05:34:17;;;;;;;9.20;3.88;;;10.10;99.90;;;;;;4956167;29;20423;-37
2021/12/24 05:36:45;;;;;;;6.93;2.72;;;10.00;99.90;;;;;;4955986;28;20041;-40
2021/12/24 05:39:11;;;;;;;19.98;3.97;;;9.90;99.90;;;;;;4956123;29;20036;-34
2021/12/24 05:41:39;;;;;;;15.00;4.00;;;10.00;99.90;;;;;;4956214;29;20023;-36
2021/12/24 05:44:09;;;;;;;14.23;4.25;;;9.90;99.90;;;;;;4955931;29;20373;-34
2021/12/24 05:46:36;;;;;;;9.82;4.07;;;9.90;99.90;;;;;;4955370;29;20042;-37
2021/12/24 05:49:03;;;;;;;19.95;3.55;;;10.00;99.90;;;;;;4956336;29;20495;-38
2021/12/24 05:51:28;;;;;;;10.63;4.28;;;10.00;99.90;;;;;;4955875;29;20095;-43
2021/12/24 05:53:54;;;;;;;18.20;4.80;;;10.00;99.90;;;;;;4955721;29;20523;-37
2021/12/24 05:56:20;;;;;;;22.15;5.55;;;10.00;99.90;;;;;;4955902;29;20027;-41
2021/12/24 05:58:45;;;;;;;18.38;5.55;;;10.00;99.90;;;;;;4955586;29;20086;-39
2021/12/24 06:01:11;;;;;;;17.77;5.75;;;10.00;99.90;;;;;;4955810;28;20031;-32
2021/12/24 06:03:37;;;;;;;18.33;4.43;;;9.90;99.90;;;;;;4955460;29;20392;-38
2021/12/24 06:06:03;;;;;;;16.80;5.15;;;9.90;99.90;;;;;;4937677;29;20043;-36
2021/12/24 06:08:28;;;;;;;10.95;4.28;;;9.90;99.90;;;;;;4955629;29;20019;-40
2021/12/24 06:10:55;;;;;;;16.02;3.97;;;9.90;99.90;;;;;;4954903;29;20110;-38
2021/12/24 06:13:24;;;;;;;11.30;3.30;;;9.90;99.90;;;;;;4954457;29;20031;-40
2021/12/24 06:15:51;;;;;;;13.43;4.18;;;9.80;99.90;;;;;;4953877;29;20016;-35
2021/12/24 06:18:28;;;;;;;16.90;4.65;;;9.80;99.90;;;;;;4953666;29;20023;-35
2021/12/24 06:20:56;;;;;;;12.00;3.40;;;9.70;99.90;;;;;;4954842;29;20504;-38
2021/12/24 06:23:24;;;;;;;16.17;4.40;;;9.70;99.90;;;;;;4955238;29;20491;-37
2021/12/24 06:25:51;;;;;;;17.42;3.88;;;9.60;99.90;;;;;;4955293;29;20468;-34
2021/12/24 06:28:17;;;;;;;34.97;4.55;;;9.60;99.90;;;;;;4955316;29;20023;-37
2021/12/24 06:30:43;;;;;;;14.10;4.03;;;9.60;99.90;;;;;;4955003;29;20500;-37
2021/12/24 06:33:10;;;;;;;15.32;3.80;;;9.50;99.90;;;;;;4955153;29;20074;-41
2021/12/24 06:35:36;;;;;;;22.98;4.13;;;9.50;99.90;;;;;;4954711;29;20544;-38
2021/12/24 06:38:02;;;;;;;17.35;4.50;;;9.50;99.90;;;;;;4954921;29;20077;-39
2021/12/24 06:40:28;;;;;;;23.00;4.82;;;9.50;99.90;;;;;;4954798;29;20030;-38
2021/12/24 06:42:54;;;;;;;12.07;4.75;;;9.50;99.90;;;;;;4955275;29;20031;-41
2021/12/24 06:45:23;;;;;;;13.55;4.47;;;9.50;99.90;;;;;;4955148;29;20071;-38
2021/12/24 06:47:51;;;;;;;13.60;4.68;;;9.50;99.90;;;;;;4954986;29;20066;-37
2021/12/24 06:50:17;;;;;;;17.38;5.07;;;9.50;99.90;;;;;;4954595;29;20109;-35
2021/12/24 06:52:42;;;;;;;19.35;5.88;;;9.40;99.90;;;;;;4955125;29;20174;-37
2021/12/24 06:55:09;;;;;;;25.92;5.18;;;9.40;99.90;;;;;;4954950;29;20019;-35
2021/12/24 06:57:35;;;;;;;13.13;6.20;;;9.50;99.90;;;;;;4954855;29;20477;-38
2021/12/24 07:00:01;;;;;;;24.88;5.93;;;9.40;99.90;;;;;;4954788;28;20022;-39
2021/12/24 07:02:26;;;;;;;23.55;7.05;;;9.40;99.90;;;;;;4953698;29;20027;-37
2021/12/24 07:04:52;;;;;;;22.40;5.22;;;9.40;99.90;;;;;;4955136;29;20027;-39
2021/12/24 07:07:17;;;;;;;23.52;6.22;;;9.40;99.90;;;;;;4955016;29;20023;-38
2021/12/24 07:09:43;;;;;;;14.10;4.80;;;9.40;99.90;;;;;;4954973;29;20028;-39
2021/12/24 07:12:11;;;;;;;11.70;4.05;;;9.50;99.90;;;;;;4954266;29;20106;-42
2021/12/24 07:14:37;;;;;;;18.23;4.80;;;9.50;99.90;;;;;;4954066;28;20031;-37
2021/12/24 07:17:03;;;;;;;15.10;4.30;;;9.50;99.90;;;;;;4949247;29;20047;-35
2021/12/24 07:19:29;;;;;;;11.73;4.05;;;9.50;99.90;;;;;;4954649;28;20034;-39
2021/12/24 07:21:55;;;;;;;22.77;4.57;;;9.50;99.90;;;;;;4953519;29;20035;-40
2021/12/24 07:24:20;;;;;;;7.18;3.88;;;9.50;99.90;;;;;;4953840;29;20082;-37
2021/12/24 07:26:46;;;;;;;13.10;4.78;;;9.50;99.90;;;;;;4953893;29;20476;-40
2021/12/24 07:29:12;;;;;;;19.75;4.60;;;9.50;99.90;;;;;;4954076;29;20035;-38
2021/12/24 07:31:37;;;;;;;21.60;4.45;;;9.50;99.90;;;;;;4954095;29;20472;-35
2021/12/24 07:34:03;;;;;;;27.27;4.68;;;9.50;99.90;;;;;;4953800;29;20498;-37
2021/12/24 07:36:29;;;;;;;18.83;5.07;;;9.50;99.90;;;;;;4937064;29;20050;-37
2021/12/24 07:38:54;;;;;;;15.90;3.90;;;9.40;99.90;;;;;;4953978;29;20031;-39
2021/12/24 07:41:21;;;;;;;15.45;4.45;;;9.40;99.90;;;;;;4954027;29;20035;-37
2021/12/24 07:43:46;;;;;;;24.25;3.95;;;9.40;99.90;;;;;;4953886;29;20491;-36
2021/12/24 07:46:12;;;;;;;24.08;5.47;;;9.40;99.90;;;;;;4953559;29;20047;-39
2021/12/24 07:48:47;;;;;;;18.23;3.95;;;9.40;99.90;;;;;;4953948;29;20066;-33
2021/12/24 07:54:00;;;;;;;19.48;4.40;;;9.40;99.90;;;;;;4953920;29;20135;-39
2021/12/24 07:56:27;;;;;;;21.25;3.65;;;9.40;99.90;;;;;;4953847;29;20110;-37
2021/12/24 07:58:53;;;;;;;16.83;3.92;;;9.50;99.90;;;;;;4954109;29;20031;-35
2021/12/24 08:01:21;;;;;;;20.58;4.55;;;9.50;99.90;;;;;;4952824;29;20035;-36
2021/12/24 08:03:47;;;;;;;11.23;3.42;;;9.50;99.90;;;;;;4953972;29;20027;-38
2021/12/24 08:06:13;;;;;;;17.30;4.78;;;9.50;99.90;;;;;;4954070;29;20078;-40
2021/12/24 08:08:38;;;;;;;16.45;3.75;;;9.50;99.90;;;;;;4953842;29;20035;-37
2021/12/24 08:11:04;;;;;;;18.30;4.68;;;9.60;99.90;;;;;;4951544;29;20040;-40
2021/12/24 08:13:29;;;;;;;13.95;3.65;;;9.60;99.90;;;;;;4953879;29;20039;-35
2021/12/24 08:15:55;;;;;;;20.73;3.42;;;9.70;99.90;;;;;;4953226;29;20083;-38
2021/12/24 08:18:21;;;;;;;14.63;4.05;;;9.70;99.90;;;;;;4928778;29;20556;-38
2021/12/24 08:20:47;;;;;;;10.25;3.28;;;9.80;99.90;;;;;;4945923;29;20031;-40
2021/12/24 08:23:12;;;;;;;20.27;3.85;;;9.70;99.90;;;;;;4953402;29;20035;-36
2021/12/24 08:25:38;;;;;;;24.75;3.60;;;9.80;99.90;;;;;;4955865;28;20045;-40
2021/12/24 08:28:04;;;;;;;22.90;4.05;;;9.80;99.90;;;;;;4952248;29;20031;-41
2021/12/24 08:30:30;;;;;;;13.23;3.67;;;9.80;99.90;;;;;;4957096;29;20027;-38
2021/12/24 08:32:57;;;;;;;20.85;4.70;;;9.80;99.90;;;;;;4955681;29;20082;-40
2021/12/24 08:35:24;;;;;;;12.95;3.35;;;9.80;99.90;;;;;;4953821;29;20023;-39
2021/12/24 08:37:49;;;;;;;19.88;4.05;;;9.80;99.90;;;;;;4956736;29;20031;-38
2021/12/24 08:40:16;;;;;;;19.70;4.65;;;9.80;99.90;;;;;;4956406;29;20123;-34
2021/12/24 08:42:41;;;;;;;16.92;3.70;;;9.90;99.90;;;;;;4956778;29;20027;-36
2021/12/24 08:45:08;;;;;;;15.57;3.63;;;9.80;99.90;;;;;;4956936;29;20085;-36
2021/12/24 08:47:34;;;;;;;16.33;3.80;;;9.80;99.90;;;;;;4956523;29;20539;-35
2021/12/24 08:49:59;;;;;;;14.82;3.22;;;9.80;99.90;;;;;;4957403;29;20151;-38
2021/12/24 08:52:25;;;;;;;16.88;4.00;;;9.90;99.90;;;;;;4957076;29;20031;-38
2021/12/24 08:54:50;;;;;;;20.08;3.15;;;9.90;99.90;;;;;;4956282;29;20038;-35
2021/12/24 08:57:16;;;;;;;13.13;2.70;;;9.80;99.90;;;;;;4956570;29;20023;-35
2021/12/24 08:59:42;;;;;;;13.82;3.05;;;9.90;99.90;;;;;;4957000;29;20526;-35
2021/12/24 09:02:08;;;;;;;10.68;2.53;;;9.80;99.90;;;;;;4957220;29;20038;-35
2021/12/24 09:04:33;;;;;;;14.35;3.10;;;9.80;99.90;;;;;;4956838;29;20067;-34
2021/12/24 09:06:59;;;;;;;9.30;2.55;;;9.90;99.90;;;;;;4956397;29;20472;-36
2021/12/24 09:09:25;;;;;;;18.73;2.65;;;9.90;99.90;;;;;;4956697;29;20026;-37
2021/12/24 09:11:50;;;;;;;16.38;3.97;;;9.80;99.90;;;;;;4957045;28;20027;-38
2021/12/24 09:14:18;;;;;;;20.35;2.88;;;9.60;99.90;;;;;;4939748;29;20039;-35
2021/12/24 09:16:45;;;;;;;18.48;3.33;;;9.50;99.90;;;;;;4956540;29;20031;-37
2021/12/24 09:19:14;;;;;;;11.77;3.10;;;9.50;99.90;;;;;;4938825;29;20094;-37
2021/12/24 09:21:40;;;;;;;15.52;2.60;;;9.40;99.90;;;;;;4956293;29;20038;-38
2021/12/24 09:24:07;;;;;;;6.80;2.03;;;9.40;99.90;;;;;;4956704;29;20027;-39
2021/12/24 09:26:33;;;;;;;22.02;2.95;;;9.40;99.90;;;;;;4956772;29;20034;-39
2021/12/24 09:29:01;;;;;;;19.65;3.13;;;9.50;99.90;;;;;;4956378;29;20043;-40
2021/12/24 09:31:27;;;;;;;18.92;2.55;;;9.50;99.90;;;;;;4955701;29;20031;-37
2021/12/24 09:33:54;;;;;;;9.02;2.15;;;9.50;99.90;;;;;;4955969;29;20085;-38
2021/12/24 09:36:25;;;;;;;8.95;2.63;;;9.60;99.90;;;;;;4956065;28;20172;-39
2021/12/24 09:38:52;;;;;;;12.75;2.60;;;9.70;99.90;;;;;;4954403;29;20028;-35
2021/12/24 09:41:19;;;;;;;7.35;2.50;;;9.60;99.90;;;;;;4937368;29;20031;-36
2021/12/24 09:43:45;;;;;;;11.80;2.35;;;9.60;99.90;;;;;;4954545;29;20487;-36
2021/12/24 09:46:12;;;;;;;15.00;2.70;;;9.60;99.90;;;;;;4953380;29;20043;-34
2021/12/24 09:48:38;;;;;;;15.15;2.80;;;9.70;99.90;;;;;;4953223;28;20373;-39
2021/12/24 09:51:04;;;;;;;15.43;3.60;;;9.70;99.90;;;;;;4955548;29;20027;-39
2021/12/24 09:53:30;;;;;;;11.45;3.40;;;9.70;99.90;;;;;;4955487;29;20050;-35
2021/12/24 09:55:56;;;;;;;20.30;3.50;;;9.70;99.90;;;;;;4955573;29;20071;-35
2021/12/24 09:58:21;;;;;;;17.42;3.33;;;9.80;99.90;;;;;;4955442;29;20078;-35
2021/12/24 10:00:47;;;;;;;9.32;3.15;;;9.80;99.90;;;;;;4955462;29;20027;-33
2021/12/24 10:03:30;;;;;;;15.02;3.25;;;9.80;99.90;;;;;;4955232;29;20546;-33
2021/12/24 10:05:56;;;;;;;11.88;4.20;;;9.80;99.90;;;;;;4955304;29;20027;-38
2021/12/24 10:08:24;;;;;;;13.40;2.60;;;9.80;99.90;;;;;;4954901;29;20543;-37
2021/12/24 10:10:54;;;;;;;19.70;3.03;;;9.80;99.90;;;;;;4953879;29;20520;-39
2021/12/24 10:13:39;;;;;;;14.52;3.00;;;9.90;99.90;;;;;;4954354;29;20496;-36
2021/12/24 10:16:17;;;;;;;16.40;2.92;;;9.90;99.90;;;;;;4954052;29;20452;-36
2021/12/24 10:18:49;;;;;;;24.00;4.65;;;9.90;99.90;;;;;;4945831;29;20042;-39
2021/12/24 10:21:19;;;;;;;23.15;3.38;;;10.00;99.90;;;;;;4949574;29;20063;-35
2021/12/24 10:24:00;;;;;;;8.15;3.30;;;9.90;99.90;;;;;;4955044;29;20047;-38
2021/12/24 10:26:29;;;;;;;21.10;3.00;;;9.90;99.90;;;;;;4955113;29;20050;-35
2021/12/24 10:29:15;;;;;;;14.85;3.85;;;10.00;99.90;;;;;;4954220;29;20026;-35
2021/12/24 10:31:47;;;;;;;16.70;2.97;;;10.00;99.90;;;;;;4953794;29;20031;-37
2021/12/24 10:34:27;;;;;;;10.38;2.58;;;9.90;99.90;;;;;;4953837;29;20468;-36
2021/12/24 10:37:07;;;;;;;14.50;3.15;;;10.00;99.90;;;;;;4954685;29;20376;-32
2021/12/24 10:39:47;;;;;;;12.68;3.35;;;10.00;99.90;;;;;;4954994;29;20548;-39
2021/12/24 10:42:16;;;;;;;13.88;2.90;;;10.00;99.90;;;;;;4951981;29;20031;-32
2021/12/24 10:44:44;;;;;;;6.65;2.75;;;10.00;99.90;;;;;;4950306;29;20397;-59
2021/12/24 10:47:12;;;;;;;;;;;10.00;99.90;;;;;;4951161;29;20496;-36
2021/12/24 10:55:31;;;;;;;22.48;3.63;;;10.10;99.90;;;;;;4952130;29;20035;-39
2021/12/24 10:57:59;;;;;;;8.95;3.33;;;10.20;99.90;;;;;;4942348;29;20427;-37
2021/12/24 11:00:57;;;;;;;17.00;3.80;;;10.30;99.90;;;;;;4950710;29;20035;-39
2021/12/24 11:03:29;;;;;;;16.75;4.03;;;10.40;99.90;;;;;;4934353;29;20051;-39
2021/12/24 11:06:06;;;;;;;20.85;4.63;;;10.50;99.90;;;;;;4949852;28;20427;-38
2021/12/24 11:08:32;;;;;;;14.15;3.63;;;10.60;99.90;;;;;;4954522;29;20471;-37
2021/12/24 11:11:00;;;;;;;15.13;3.40;;;10.60;99.90;;;;;;4953567;29;20019;-38
2021/12/24 11:13:39;;;;;;;16.65;3.60;;;10.70;99.90;;;;;;4950009;29;20090;-30
2021/12/24 11:16:06;;;;;;;13.20;3.13;;;10.60;99.90;;;;;;4954557;29;20387;-38
2021/12/24 11:18:39;;;;;;;15.98;3.28;;;10.50;99.90;;;;;;4954496;29;20034;-37
2021/12/24 11:21:20;;;;;;;17.33;4.20;;;10.50;99.90;;;;;;4954412;29;20428;-38
2021/12/24 11:23:46;;;;;;;16.52;3.47;;;10.40;99.90;;;;;;4954492;29;20031;-35
2021/12/24 11:26:21;;;;;;;17.65;3.33;;;10.40;99.90;;;;;;4953951;29;20054;-31
2021/12/24 11:28:48;;;;;;;12.18;3.80;;;10.30;99.90;;;;;;4954080;29;20039;-34
2021/12/24 11:31:17;;;;;;;19.47;4.57;;;10.20;99.90;;;;;;4936227;29;20046;-35
2021/12/24 11:33:44;;;;;;;16.08;3.53;;;10.20;99.90;;;;;;4950508;28;20143;-41
2021/12/24 11:36:13;;;;;;;21.00;4.82;;;10.30;99.90;;;;;;4948680;29;20498;-46
2021/12/24 11:39:00;;;;;;;17.65;4.28;;;10.20;99.90;;;;;;4953176;29;20023;-35
2021/12/24 11:41:30;;;;;;;19.00;5.57;;;10.20;99.90;;;;;;4950178;29;20488;-35
2021/12/24 11:43:57;;;;;;;16.10;4.13;;;10.30;99.90;;;;;;4945276;29;20027;-52
2021/12/24 11:46:25;;;;;;;11.52;3.35;;;10.40;99.90;;;;;;4946661;29;20039;-31
2021/12/24 11:48:53;;;;;;;16.67;4.50;;;10.40;99.90;;;;;;4948344;29;20058;-40
2021/12/24 11:51:21;;;;;;;18.13;4.80;;;10.50;99.90;;;;;;4946471;28;20023;-37
2021/12/24 11:53:47;;;;;;;;;;;10.50;99.90;;;;;;4946894;28;20031;-38
2021/12/24 11:56:15;;;;;;;11.30;3.85;;;10.50;99.90;;;;;;4948451;29;19936;-33
2021/12/24 11:58:47;;;;;;;15.55;4.57;;;10.50;99.90;;;;;;4942735;29;20032;-38
2021/12/24 12:01:17;;;;;;;19.98;5.10;;;10.50;99.90;;;;;;4948086;28;20051;-34
2021/12/24 12:03:52;;;;;;;16.42;4.50;;;10.60;99.90;;;;;;4945590;28;20031;-41
2021/12/24 12:06:24;;;;;;;19.05;4.97;;;10.50;99.90;;;;;;4948080;28;20392;-34
2021/12/24 12:08:55;;;;;;;17.92;4.63;;;10.50;99.90;;;;;;4947431;28;20023;-31
2021/12/24 12:11:25;;;;;;;9.48;3.63;;;10.40;99.90;;;;;;4945899;28;20034;-40
2021/12/24 12:14:05;;;;;;;16.48;4.13;;;10.30;99.90;;;;;;4947598;28;20042;-31
2021/12/24 12:16:42;;;;;;;14.70;4.20;;;10.20;99.90;;;;;;4947803;28;20027;-37
2021/12/24 12:19:13;;;;;;;21.25;5.53;;;10.10;99.90;;;;;;4945209;28;20043;-38
2021/12/24 12:21:42;;;;;;;20.58;3.97;;;10.10;99.90;;;;;;4949714;29;20044;-37
2021/12/24 12:26:49;;;;;;;15.15;5.32;;;10.10;99.90;;;;;;4948429;29;20035;-36
2021/12/24 12:29:27;;;;;;;16.23;4.68;;;10.10;99.90;;;;;;4947211;29;20039;-38
2021/12/24 12:32:24;;;;;;;13.90;5.60;;;10.00;99.90;;;;;;4945926;29;20484;-38
2021/12/24 12:34:59;;;;;;;14.57;4.60;;;10.00;99.90;;;;;;4946973;28;20039;-40
2021/12/24 12:37:49;;;;;;;27.58;5.20;;;10.00;99.90;;;;;;4945865;29;20055;-36
2021/12/24 12:40:18;;;;;;;20.98;3.85;;;10.10;99.90;;;;;;4939857;29;20061;-37
2021/12/24 12:42:55;;;;;;;12.40;3.78;;;10.00;99.90;;;;;;4947868;29;20514;-33
2021/12/24 12:45:33;;;;;;;17.98;3.90;;;10.00;99.90;;;;;;4943776;28;20504;-38
2021/12/24 12:48:08;;;;;;;13.68;4.78;;;9.90;99.90;;;;;;4947491;29;20039;-39
2021/12/24 12:50:34;;;;;;;21.50;4.03;;;9.90;99.90;;;;;;4946692;28;20031;-36
2021/12/24 12:53:22;;;;;;;21.23;4.60;;;9.90;99.90;;;;;;4946859;28;20372;-41
2021/12/24 12:55:48;;;;;;;16.00;3.38;;;9.90;99.90;;;;;;4949036;29;20503;-34
2021/12/24 12:58:23;;;;;;;18.98;3.78;;;9.80;99.90;;;;;;4945872;29;20468;-39
2021/12/24 13:01:06;;;;;;;11.13;3.40;;;9.80;99.90;;;;;;4946455;29;20467;-35
2021/12/24 13:03:53;;;;;;;8.77;3.28;;;9.70;99.90;;;;;;4946324;28;20392;-38
2021/12/24 13:06:20;;;;;;;18.70;3.53;;;9.60;99.90;;;;;;4945811;29;20404;-39
2021/12/24 13:08:46;;;;;;;22.65;4.00;;;9.60;99.90;;;;;;4946679;29;20027;-36
2021/12/24 13:11:16;;;;;;;19.02;5.00;;;9.60;99.90;;;;;;4947498;28;20045;-36
2021/12/24 13:13:59;;;;;;;14.63;3.40;;;9.60;99.90;;;;;;4949105;29;20440;-34
2021/12/24 13:16:42;;;;;;;12.70;3.85;;;9.70;99.90;;;;;;4948594;29;20519;-39
2021/12/24 13:24:52;;;;;;;12.50;3.08;;;9.60;99.90;;;;;;4950740;29;20099;-40
2021/12/24 13:27:20;;;;;;;17.30;3.85;;;9.60;99.90;;;;;;4955194;29;20031;-41
2021/12/24 13:29:46;;;;;;;;;;;9.60;99.90;;;;;;4954979;29;20038;-33
2021/12/24 13:32:12;;;;;;;13.32;2.90;;;9.60;99.90;;;;;;4954905;29;19914;-33
2021/12/24 13:34:38;;;;;;;11.68;3.53;;;9.50;99.90;;;;;;4953407;29;20064;-34
2021/12/24 13:37:13;;;;;;;10.85;3.78;;;9.50;99.90;;;;;;4954665;29;20488;-37
2021/12/24 13:39:46;;;;;;;10.15;2.80;;;9.50;99.90;;;;;;4954671;29;20038;-38
2021/12/24 13:42:12;;;;;;;12.10;2.85;;;9.50;99.90;;;;;;4954187;29;20500;-39
2021/12/24 13:44:40;;;;;;;10.15;2.58;;;9.40;99.90;;;;;;4954404;29;20038;-35
2021/12/24 13:47:22;;;;;;;20.45;3.20;;;9.50;99.90;;;;;;4952399;29;20136;-33
2021/12/24 13:55:30;;;;;;;18.42;3.05;;;9.30;99.90;;;;;;4956285;29;20186;-34
2021/12/24 13:57:57;;;;;;;10.90;2.97;;;9.20;99.90;;;;;;4955313;29;20035;-32
2021/12/24 14:00:24;;;;;;;6.32;2.75;;;9.30;99.90;;;;;;4955118;29;20117;-34
2021/12/24 14:02:59;;;;;;;7.60;2.17;;;9.30;99.90;;;;;;4955182;29;20031;-33
2021/12/24 14:05:26;;;;;;;5.28;1.73;;;9.20;99.90;;;;;;4954615;29;20027;-36
2021/12/24 14:08:09;;;;;;;5.68;2.08;;;9.20;99.90;;;;;;4953210;29;20491;-39
2021/12/24 14:10:36;;;;;;;2.10;1.60;;;9.20;99.90;;;;;;4955678;29;20031;-34
2021/12/24 14:13:09;;;;;;;1.98;1.80;;;9.20;99.90;;;;;;4953560;29;20082;-35
2021/12/24 14:15:48;;;;;;;2.72;1.90;;;9.20;99.90;;;;;;4955925;29;20030;-38
2021/12/24 14:18:30;;;;;;;2.65;1.73;;;9.20;99.90;;;;;;4953452;29;20476;-36
2021/12/24 14:23:30;;;;;;;7.63;1.75;;;9.10;99.90;;;;;;4950814;28;20042;-36
2021/12/24 14:25:59;;;;;;;5.05;2.13;;;9.10;99.90;;;;;;4953223;29;20043;-37
2021/12/24 14:28:25;;;;;;;5.53;1.75;;;9.10;99.90;;;;;;4954527;29;20036;-35
2021/12/24 14:31:02;;;;;;;7.28;2.25;;;9.00;99.90;;;;;;4936669;29;20027;-33
2021/12/24 14:33:33;;;;;;;3.50;1.47;;;9.00;99.90;;;;;;4951429;29;20039;-38
2021/12/24 14:36:00;;;;;;;5.25;2.00;;;9.00;99.90;;;;;;4952355;29;20024;-38
2021/12/24 14:38:26;;;;;;;3.75;1.70;;;8.90;99.90;;;;;;4948650;29;20019;-43
2021/12/24 14:40:58;;;;;;;10.27;1.95;;;9.00;99.90;;;;;;4946174;28;20038;-35
2021/12/24 14:43:23;;;;;;;4.78;2.05;;;9.00;99.90;;;;;;4947201;29;20085;-36
2021/12/24 14:45:51;;;;;;;5.88;1.95;;;9.00;99.90;;;;;;4946968;29;20125;-36
2021/12/24 14:48:26;;;;;;;3.65;2.38;;;9.00;99.90;;;;;;4947560;29;20051;-36
2021/12/24 14:51:07;;;;;;;4.55;2.30;;;9.00;99.90;;;;;;4951034;29;20546;-38
2021/12/24 14:53:37;;;;;;;6.95;2.60;;;9.00;99.90;;;;;;4951526;29;20491;-33
2021/12/24 14:56:10;;;;;;;4.40;1.85;;;9.00;99.90;;;;;;4949712;29;20054;-36